sensor_id;sensor_type;location;lat;lon;timestamp;pressure;altitude;pressure_sealevel;temperature;humidity
64753;BME280;61095;52.454;16.948;2023-06-10T06:00:59;100744.78;;;23.70;44.21
64753;BME280;61095;52.454;16.948;2023-06-10T06:05:59;100727.13;;;24.00;43.73
64753;BME280;61095;52.454;16.948;2023-06-10T06:11:00;100748.34;;;24.25;43.61
64753;BME280;61095;52.454;16.948;2023-06-10T06:16:01;100745.00;;;23.90;44.06
64753;BME280;61095;52.454;16.948;2023-06-10T06:21:02;100737.09;;;24.20;43.59
64753;BME280;61095;52.454;16.948;2023-06-10T06:26:02;100728.13;;;24.20;43.87
64753;BME280;61095;52.454;16.948;2023-06-10T06:31:04;100724.06;;;24.25;43.25
64753;BME280;61095;52.454;16.948;2023-06-10T06:36:05;100740.84;;;24.29;43.36
64753;BME280;61095;52.454;16.948;2023-06-10T06:41:05;100752.56;;;24.71;42.26
64753;BME280;61095;52.454;16.948;2023-06-10T06:46:07;100739.19;;;24.49;42.55
64753;BME280;61095;52.454;16.948;2023-06-10T06:51:07;100754.91;;;24.12;42.86
64753;BME280;61095;52.454;16.948;2023-06-10T06:56:08;100746.66;;;24.13;42.43
64753;BME280;61095;52.454;16.948;2023-06-10T07:01:09;100743.72;;;24.48;41.37
64753;BME280;61095;52.454;16.948;2023-06-10T07:06:10;100758.19;;;24.79;41.39
64753;BME280;61095;52.454;16.948;2023-06-10T07:11:10;100758.50;;;24.86;41.23
64753;BME280;61095;52.454;16.948;2023-06-10T07:16:12;100756.97;;;24.72;41.66
64753;BME280;61095;52.454;16.948;2023-06-10T07:21:12;100759.81;;;24.91;41.28
64753;BME280;61095;52.454;16.948;2023-06-10T07:26:12;100768.97;;;24.47;41.48
64753;BME280;61095;52.454;16.948;2023-06-10T07:31:14;100752.81;;;25.10;40.35
64753;BME280;61095;52.454;16.948;2023-06-10T07:36:15;100756.97;;;25.35;39.92
64753;BME280;61095;52.454;16.948;2023-06-10T07:41:15;100749.59;;;25.46;40.46
64753;BME280;61095;52.454;16.948;2023-06-10T07:46:18;100748.44;;;25.89;39.48
64753;BME280;61095;52.454;16.948;2023-06-10T07:51:18;100748.94;;;26.13;38.58
64753;BME280;61095;52.454;16.948;2023-06-10T07:56:18;100777.81;;;26.13;38.17
64753;BME280;61095;52.454;16.948;2023-06-10T08:01:22;100773.13;;;25.65;38.54
64753;BME280;61095;52.454;16.948;2023-06-10T08:06:22;100758.41;;;25.88;38.43
64753;BME280;61095;52.454;16.948;2023-06-10T08:11:22;100763.44;;;25.63;38.52
64753;BME280;61095;52.454;16.948;2023-06-10T08:16:25;100753.88;;;25.49;38.76
64753;BME280;61095;52.454;16.948;2023-06-10T08:21:25;100769.16;;;25.69;37.70
64753;BME280;61095;52.454;16.948;2023-06-10T08:26:26;100759.03;;;25.62;37.42
64753;BME280;61095;52.454;16.948;2023-06-10T08:31:28;100791.75;;;25.99;36.35
64753;BME280;61095;52.454;16.948;2023-06-10T08:36:28;100760.31;;;26.17;35.42
64753;BME280;61095;52.454;16.948;2023-06-10T08:41:31;100765.13;;;25.94;34.76
64753;BME280;61095;52.454;16.948;2023-06-10T08:46:37;100761.59;;;26.03;34.33
64753;BME280;61095;52.454;16.948;2023-06-10T08:51:40;100785.06;;;26.03;34.65
64753;BME280;61095;52.454;16.948;2023-06-10T08:56:42;100762.81;;;25.80;33.48
64753;BME280;61095;52.454;16.948;2023-06-10T09:01:46;100765.88;;;25.66;32.57
64753;BME280;61095;52.454;16.948;2023-06-10T09:06:49;100766.72;;;26.16;31.34
64753;BME280;61095;52.454;16.948;2023-06-10T09:11:49;100760.72;;;25.93;32.00
64753;BME280;61095;52.454;16.948;2023-06-10T09:16:52;100771.31;;;26.25;31.38
64753;BME280;61095;52.454;16.948;2023-06-10T09:21:53;100752.31;;;25.96;34.15
64753;BME280;61095;52.454;16.948;2023-06-10T09:27:01;100757.63;;;26.46;33.91
64753;BME280;61095;52.454;16.948;2023-06-10T09:32:04;100773.91;;;26.56;34.10
64753;BME280;61095;52.454;16.948;2023-06-10T09:37:05;100779.00;;;26.30;35.20
64753;BME280;61095;52.454;16.948;2023-06-10T09:42:15;100754.22;;;26.44;35.06
64753;BME280;61095;52.454;16.948;2023-06-10T09:47:20;100758.06;;;26.22;35.37
64753;BME280;61095;52.454;16.948;2023-06-10T09:52:21;100763.88;;;26.08;35.92
64753;BME280;61095;52.454;16.948;2023-06-10T09:57:22;100762.47;;;26.23;34.06
64753;BME280;61095;52.454;16.948;2023-06-10T10:02:24;100750.34;;;26.17;34.33
64753;BME280;61095;52.454;16.948;2023-06-10T10:07:24;100748.81;;;26.44;33.91
64753;BME280;61095;52.454;16.948;2023-06-10T10:12:25;100753.22;;;26.45;32.47
64753;BME280;61095;52.454;16.948;2023-06-10T10:17:27;100737.69;;;26.66;32.14
64753;BME280;61095;52.454;16.948;2023-06-10T10:22:33;100747.97;;;26.63;33.02
64753;BME280;61095;52.454;16.948;2023-06-10T10:27:36;100739.56;;;26.75;33.32
64753;BME280;61095;52.454;16.948;2023-06-10T10:32:47;100746.06;;;26.92;33.11
64753;BME280;61095;52.454;16.948;2023-06-10T10:37:53;100748.44;;;27.05;32.01
64753;BME280;61095;52.454;16.948;2023-06-10T10:42:54;100741.06;;;26.97;31.03
64753;BME280;61095;52.454;16.948;2023-06-10T10:47:56;100751.63;;;26.91;29.76
64753;BME280;61095;52.454;16.948;2023-06-10T10:52:59;100739.13;;;26.80;30.75
64753;BME280;61095;52.454;16.948;2023-06-10T10:58:03;100738.38;;;26.88;30.85
64753;BME280;61095;52.454;16.948;2023-06-10T11:03:07;100740.06;;;26.98;31.03
64753;BME280;61095;52.454;16.948;2023-06-10T11:08:08;100742.75;;;27.18;30.41
64753;BME280;61095;52.454;16.948;2023-06-10T11:13:10;100739.13;;;26.80;30.95
64753;BME280;61095;52.454;16.948;2023-06-10T11:18:19;100732.47;;;27.02;31.01
64753;BME280;61095;52.454;16.948;2023-06-10T11:23:32;100757.69;;;27.12;30.49
64753;BME280;61095;52.454;16.948;2023-06-10T11:28:32;100731.75;;;27.09;31.01
64753;BME280;61095;52.454;16.948;2023-06-10T11:33:38;100751.03;;;27.16;30.76
64753;BME280;61095;52.454;16.948;2023-06-10T11:38:38;100715.88;;;27.34;30.39
64753;BME280;61095;52.454;16.948;2023-06-10T11:43:43;100699.78;;;27.13;29.79
64753;BME280;61095;52.454;16.948;2023-06-10T11:48:50;100721.78;;;27.47;29.48
64753;BME280;61095;52.454;16.948;2023-06-10T11:53:53;100726.09;;;27.40;29.63
64753;BME280;61095;52.454;16.948;2023-06-10T11:58:56;100716.22;;;27.49;29.20
64753;BME280;61095;52.454;16.948;2023-06-10T12:03:59;100724.75;;;27.54;29.42
64753;BME280;61095;52.454;16.948;2023-06-10T12:08:59;100738.88;;;27.20;29.68
64753;BME280;61095;52.454;16.948;2023-06-10T12:14:00;100718.94;;;27.21;29.65
64753;BME280;61095;52.454;16.948;2023-06-10T12:19:05;100714.00;;;27.34;29.67
64753;BME280;61095;52.454;16.948;2023-06-10T12:24:07;100718.44;;;27.35;29.33
64753;BME280;61095;52.454;16.948;2023-06-10T12:29:18;100706.78;;;27.53;28.69
64753;BME280;61095;52.454;16.948;2023-06-10T12:34:28;100726.44;;;27.55;29.10
64753;BME280;61095;52.454;16.948;2023-06-10T12:39:28;100732.53;;;27.39;28.70
64753;BME280;61095;52.454;16.948;2023-06-10T12:44:32;100715.94;;;27.05;29.69
64753;BME280;61095;52.454;16.948;2023-06-10T12:49:34;100715.09;;;27.04;29.15
64753;BME280;61095;52.454;16.948;2023-06-10T12:54:34;100708.09;;;27.21;29.19
64753;BME280;61095;52.454;16.948;2023-06-10T12:59:35;100704.28;;;26.95;29.00
64753;BME280;61095;52.454;16.948;2023-06-10T13:04:37;100713.94;;;27.17;29.44
64753;BME280;61095;52.454;16.948;2023-06-10T13:09:38;100683.28;;;27.06;29.16
64753;BME280;61095;52.454;16.948;2023-06-10T13:14:38;100694.63;;;27.57;28.94
64753;BME280;61095;52.454;16.948;2023-06-10T13:19:40;100698.00;;;27.68;28.64
64753;BME280;61095;52.454;16.948;2023-06-10T13:24:40;100699.03;;;27.58;28.27
64753;BME280;61095;52.454;16.948;2023-06-10T13:29:40;100693.94;;;27.82;28.35
64753;BME280;61095;52.454;16.948;2023-06-10T13:34:42;100699.00;;;27.67;27.86
64753;BME280;61095;52.454;16.948;2023-06-10T13:39:43;100680.00;;;27.22;28.24
64753;BME280;61095;52.454;16.948;2023-06-10T13:44:43;100696.94;;;27.52;28.16
64753;BME280;61095;52.454;16.948;2023-06-10T13:49:45;100684.00;;;27.18;27.88
64753;BME280;61095;52.454;16.948;2023-06-10T13:54:45;100692.41;;;27.15;28.00
64753;BME280;61095;52.454;16.948;2023-06-10T13:59:45;100670.69;;;27.25;27.68
64753;BME280;61095;52.454;16.948;2023-06-10T14:04:47;100680.81;;;27.50;27.61
64753;BME280;61095;52.454;16.948;2023-06-10T14:09:48;100676.06;;;27.34;26.73
64753;BME280;61095;52.454;16.948;2023-06-10T14:14:48;100698.19;;;27.30;26.35
64753;BME280;61095;52.454;16.948;2023-06-10T14:19:50;100683.41;;;27.24;26.24
64753;BME280;61095;52.454;16.948;2023-06-10T14:24:51;100664.97;;;26.91;26.27
64753;BME280;61095;52.454;16.948;2023-06-10T14:29:51;100685.03;;;26.98;26.46
64753;BME280;61095;52.454;16.948;2023-06-10T14:34:53;100689.16;;;27.02;26.64
64753;BME280;61095;52.454;16.948;2023-06-10T14:39:54;100705.53;;;27.20;26.13
64753;BME280;61095;52.454;16.948;2023-06-10T14:44:54;100688.69;;;27.06;25.95
64753;BME280;61095;52.454;16.948;2023-06-10T14:49:56;100694.97;;;27.07;25.99
64753;BME280;61095;52.454;16.948;2023-06-10T14:54:56;100699.50;;;26.79;24.17
64753;BME280;61095;52.454;16.948;2023-06-10T14:59:57;100686.13;;;27.05;25.19
64753;BME280;61095;52.454;16.948;2023-06-10T15:04:58;100683.06;;;26.90;24.83
64753;BME280;61095;52.454;16.948;2023-06-10T15:09:59;100684.78;;;26.91;25.24
64753;BME280;61095;52.454;16.948;2023-06-10T15:15:00;100707.34;;;26.53;25.55
64753;BME280;61095;52.454;16.948;2023-06-10T15:20:02;100693.53;;;26.66;25.21
64753;BME280;61095;52.454;16.948;2023-06-10T15:25:03;100686.66;;;26.81;25.58
64753;BME280;61095;52.454;16.948;2023-06-10T15:30:04;100691.97;;;27.20;25.61
64753;BME280;61095;52.454;16.948;2023-06-10T15:35:07;100719.78;;;27.02;24.91
64753;BME280;61095;52.454;16.948;2023-06-10T15:40:08;100703.09;;;26.60;24.91
64753;BME280;61095;52.454;16.948;2023-06-10T15:45:09;100704.28;;;26.95;24.50
64753;BME280;61095;52.454;16.948;2023-06-10T15:50:11;100705.63;;;26.81;23.44
64753;BME280;61095;52.454;16.948;2023-06-10T15:55:12;100701.38;;;26.59;23.08
64753;BME280;61095;52.454;16.948;2023-06-10T16:00:13;100713.47;;;26.74;23.19
64753;BME280;61095;52.454;16.948;2023-06-10T16:05:15;100712.19;;;26.59;23.40
64753;BME280;61095;52.454;16.948;2023-06-10T16:10:15;100704.34;;;26.46;22.54
64753;BME280;61095;52.454;16.948;2023-06-10T16:15:16;100715.19;;;26.56;22.66
64753;BME280;61095;52.454;16.948;2023-06-10T16:20:18;100710.38;;;26.21;23.33
64753;BME280;61095;52.454;16.948;2023-06-10T16:25:19;100731.41;;;26.46;23.71
64753;BME280;61095;52.454;16.948;2023-06-10T16:30:19;100723.00;;;26.20;23.22
64753;BME280;61095;52.454;16.948;2023-06-10T16:35:21;100732.41;;;26.07;22.87
64753;BME280;61095;52.454;16.948;2023-06-10T16:40:21;100716.03;;;26.08;23.00
64753;BME280;61095;52.454;16.948;2023-06-10T16:45:22;100727.72;;;26.18;22.67
64753;BME280;61095;52.454;16.948;2023-06-10T16:50:24;100721.72;;;26.05;23.30
64753;BME280;61095;52.454;16.948;2023-06-10T16:55:25;100730.88;;;25.64;23.87
64753;BME280;61095;52.454;16.948;2023-06-10T17:00:25;100734.78;;;25.81;24.04
64753;BME280;61095;52.454;16.948;2023-06-10T17:05:27;100746.72;;;25.78;24.13
64753;BME280;61095;52.454;16.948;2023-06-10T17:10:27;100752.84;;;25.80;24.24
64753;BME280;61095;52.454;16.948;2023-06-10T17:15:28;100759.66;;;25.75;24.51
64753;BME280;61095;52.454;16.948;2023-06-10T17:20:29;100760.88;;;25.61;24.67
64753;BME280;61095;52.454;16.948;2023-06-10T17:25:30;100776.59;;;25.77;24.56
64753;BME280;61095;52.454;16.948;2023-06-10T17:30:31;100776.72;;;25.35;24.17
64753;BME280;61095;52.454;16.948;2023-06-10T17:35:33;100775.44;;;25.18;24.36
64753;BME280;61095;52.454;16.948;2023-06-10T17:40:33;100781.31;;;25.44;24.04
64753;BME280;61095;52.454;16.948;2023-06-10T17:45:34;100791.81;;;25.38;23.91
64753;BME280;61095;52.454;16.948;2023-06-10T17:50:35;100785.72;;;25.24;24.06
64753;BME280;61095;52.454;16.948;2023-06-10T17:55:36;100795.38;;;24.96;24.57
64753;BME280;61095;52.454;16.948;2023-06-10T18:00:36;100789.31;;;25.04;24.39
64753;BME280;61095;52.454;16.948;2023-06-10T18:05:38;100779.56;;;24.92;24.58
64753;BME280;61095;52.454;16.948;2023-06-10T18:10:38;100781.28;;;24.61;25.06
64753;BME280;61095;52.454;16.948;2023-06-10T18:15:39;100796.44;;;24.84;25.52
64753;BME280;61095;52.454;16.948;2023-06-10T18:20:41;100798.44;;;24.71;25.92
64753;BME280;61095;52.454;16.948;2023-06-10T18:25:41;100804.00;;;24.58;25.98
64753;BME280;61095;52.454;16.948;2023-06-10T18:30:43;100819.56;;;24.66;25.65
64753;BME280;61095;52.454;16.948;2023-06-10T18:35:44;100814.53;;;24.61;25.89
64753;BME280;61095;52.454;16.948;2023-06-10T18:40:45;100822.22;;;24.77;26.19
64753;BME280;61095;52.454;16.948;2023-06-10T18:45:45;100830.88;;;24.92;25.98
64753;BME280;61095;52.454;16.948;2023-06-10T18:50:47;100838.56;;;24.21;26.77
64753;BME280;61095;52.454;16.948;2023-06-10T18:55:47;100831.34;;;24.22;26.79
64753;BME280;61095;52.454;16.948;2023-06-10T19:00:48;100850.69;;;24.27;27.08
64753;BME280;61095;52.454;16.948;2023-06-10T19:05:49;100860.03;;;24.34;27.00
64753;BME280;61095;52.454;16.948;2023-06-10T19:10:50;100858.31;;;24.22;27.04
64753;BME280;61095;52.454;16.948;2023-06-10T19:15:50;100862.22;;;24.40;26.95
64753;BME280;61095;52.454;16.948;2023-06-10T19:20:52;100878.13;;;24.43;26.88
64753;BME280;61095;52.454;16.948;2023-06-10T19:25:52;100886.63;;;24.16;27.24
64753;BME280;61095;52.454;16.948;2023-06-10T19:30:53;100882.56;;;23.77;27.67
64753;BME280;61095;52.454;16.948;2023-06-10T19:35:54;100889.19;;;23.62;28.41
64753;BME280;61095;52.454;16.948;2023-06-10T19:40:55;100894.47;;;23.75;28.62
64753;BME280;61095;52.454;16.948;2023-06-10T19:45:55;100892.13;;;23.70;28.93
64753;BME280;61095;52.454;16.948;2023-06-10T19:50:57;100890.66;;;23.77;29.54
64753;BME280;61095;52.454;16.948;2023-06-10T19:55:58;100887.84;;;23.79;29.69
64753;BME280;61095;52.454;16.948;2023-06-10T20:00:59;100900.06;;;23.38;30.62
64753;BME280;61095;52.454;16.948;2023-06-10T20:06:02;100898.91;;;23.29;31.14
64753;BME280;61095;52.454;16.948;2023-06-10T20:11:02;100912.53;;;23.04;31.93
64753;BME280;61095;52.454;16.948;2023-06-10T20:16:03;100922.25;;;23.18;32.07
64753;BME280;61095;52.454;16.948;2023-06-10T20:21:05;100917.31;;;23.12;32.71
64753;BME280;61095;52.454;16.948;2023-06-10T20:26:05;100916.09;;;22.81;33.53
64753;BME280;61095;52.454;16.948;2023-06-10T20:31:06;100926.81;;;22.57;33.87
64753;BME280;61095;52.454;16.948;2023-06-10T20:36:08;100927.41;;;22.36;34.55
64753;BME280;61095;52.454;16.948;2023-06-10T20:41:08;100944.34;;;22.13;35.56
64753;BME280;61095;52.454;16.948;2023-06-10T20:46:08;100925.69;;;21.99;35.27
64753;BME280;61095;52.454;16.948;2023-06-10T20:51:10;100931.69;;;22.02;35.55
64753;BME280;61095;52.454;16.948;2023-06-10T20:56:11;100927.72;;;21.95;35.65
64753;BME280;61095;52.454;16.948;2023-06-10T21:01:11;100937.72;;;22.06;35.81
64753;BME280;61095;52.454;16.948;2023-06-10T21:06:13;100928.38;;;22.48;35.05
64753;BME280;61095;52.454;16.948;2023-06-10T21:11:13;100937.31;;;22.36;35.69
64753;BME280;61095;52.454;16.948;2023-06-10T21:16:14;100932.75;;;22.62;35.95
64753;BME280;61095;52.454;16.948;2023-06-10T21:21:15;100935.47;;;22.36;35.80
64753;BME280;61095;52.454;16.948;2023-06-10T21:26:16;100937.47;;;22.22;36.07
64753;BME280;61095;52.454;16.948;2023-06-10T21:31:16;100939.41;;;22.20;36.17
64753;BME280;61095;52.454;16.948;2023-06-10T21:36:18;100937.47;;;22.22;36.40
64753;BME280;61095;52.454;16.948;2023-06-10T21:41:18;100933.00;;;22.33;36.12
64753;BME280;61095;52.454;16.948;2023-06-10T21:46:19;100937.00;;;22.28;36.08
64753;BME280;61095;52.454;16.948;2023-06-10T21:51:21;100936.31;;;21.88;36.64
64753;BME280;61095;52.454;16.948;2023-06-10T21:56:22;100940.22;;;21.31;37.34
64753;BME280;61095;52.454;16.948;2023-06-10T22:01:22;100926.63;;;21.07;37.36
64753;BME280;61095;52.454;16.948;2023-06-10T22:06:24;100931.41;;;20.63;38.36
64753;BME280;61095;52.454;16.948;2023-06-10T22:11:25;100929.78;;;20.60;38.31
64753;BME280;61095;52.454;16.948;2023-06-10T22:16:25;100916.03;;;20.38;38.40
64753;BME280;61095;52.454;16.948;2023-06-10T22:21:27;100932.63;;;20.16;38.72
64753;BME280;61095;52.454;16.948;2023-06-10T22:26:27;100933.84;;;19.96;39.59
64753;BME280;61095;52.454;16.948;2023-06-10T22:31:28;100922.78;;;19.74;39.50
64753;BME280;61095;52.454;16.948;2023-06-10T22:36:29;100925.72;;;19.69;39.68
64753;BME280;61095;52.454;16.948;2023-06-10T22:41:30;100928.78;;;19.63;40.08
64753;BME280;61095;52.454;16.948;2023-06-10T22:46:30;100921.31;;;19.24;40.94
64753;BME280;61095;52.454;16.948;2023-06-10T22:51:32;100924.59;;;19.73;39.41
64753;BME280;61095;52.454;16.948;2023-06-10T22:56:32;100920.44;;;19.53;40.09
